Terminal Aerodrome Forecast
Issued by NWS

Home | Current Version | Previous Version | Text Only | Print | Product List | Glossary On
Versions: 1 2 3 4 5 6 7 8 9 10 11 12 13
000
FTPA31 PHFO 201140
TAFHJR
TAF
PHJR 201140Z 2012/2112 VRB03KT P6SM FEW040
     FM202100 28008KT P6SM FEW040
     FM210600 35008KT P6SM SCT040=

USA.gov is the U.S. government's official web portal to all federal, state and local government web resources and services.